createdAt,value
2019-01-29T00:00:26.368Z,-0.60
2019-01-29T00:03:15.083Z,-0.60
2019-01-29T00:06:04.982Z,-0.60
2019-01-29T00:08:54.219Z,-0.60
2019-01-29T00:11:43.195Z,-0.60
2019-01-29T00:14:32.353Z,-0.60
2019-01-29T00:17:20.909Z,-0.60
2019-01-29T00:20:11.239Z,-0.60
2019-01-29T00:22:59.981Z,-0.60
2019-01-29T00:25:49.844Z,-0.60
2019-01-29T00:28:38.931Z,-0.60
2019-01-29T00:31:28.523Z,-0.50
2019-01-29T00:34:17.852Z,-0.60
2019-01-29T00:37:07.018Z,-0.60
2019-01-29T00:39:55.923Z,-0.60
2019-01-29T00:42:45.325Z,-0.60
2019-01-29T00:45:34.080Z,-0.70
2019-01-29T00:48:23.590Z,-0.70
2019-01-29T00:51:12.248Z,-0.70
2019-01-29T00:54:01.512Z,-0.70
2019-01-29T00:56:50.658Z,-0.60
2019-01-29T00:59:39.570Z,-0.50
2019-01-29T01:02:28.599Z,-0.50
2019-01-29T01:05:18.858Z,-0.40
2019-01-29T01:08:08.776Z,-0.40
2019-01-29T01:10:58.106Z,-0.50
2019-01-29T01:13:47.113Z,-0.50
2019-01-29T01:16:36.152Z,-0.50
2019-01-29T01:19:25.544Z,-0.50
2019-01-29T01:22:14.861Z,-0.50
2019-01-29T01:25:11.332Z,-0.60
2019-01-29T01:28:00.524Z,-0.60
2019-01-29T01:30:49.904Z,-0.60
2019-01-29T01:33:39.159Z,-0.70
2019-01-29T01:36:28.483Z,-0.70
2019-01-29T01:39:17.193Z,-0.70
2019-01-29T01:42:06.136Z,-0.70
2019-01-29T01:44:54.971Z,-0.70
2019-01-29T01:47:43.921Z,-0.70
2019-01-29T01:50:33.447Z,-0.70
2019-01-29T01:53:22.575Z,-0.70
2019-01-29T01:56:11.990Z,-0.70
2019-01-29T01:59:00.968Z,-0.60
2019-01-29T02:01:50.117Z,-0.50
2019-01-29T02:04:39.481Z,-0.50
2019-01-29T02:07:28.557Z,-0.40
2019-01-29T02:10:21.107Z,-0.40
2019-01-29T02:13:10.364Z,-0.30
2019-01-29T02:15:59.208Z,-0.30
2019-01-29T02:18:48.291Z,-0.30
2019-01-29T02:21:36.891Z,-0.20
2019-01-29T02:24:26.029Z,-0.30
2019-01-29T02:27:14.932Z,-0.30
2019-01-29T02:30:05.687Z,-0.30
2019-01-29T02:32:55.005Z,-0.40
2019-01-29T02:35:44.330Z,-0.40
2019-01-29T02:38:33.556Z,-0.40
2019-01-29T02:41:23.068Z,-0.40
2019-01-29T02:44:12.333Z,-0.40
2019-01-29T02:47:01.656Z,-0.40
2019-01-29T02:49:51.079Z,-0.40
2019-01-29T02:52:39.849Z,-0.40
2019-01-29T02:55:29.098Z,-0.40
2019-01-29T02:58:18.382Z,-0.40
2019-01-29T03:01:07.854Z,-0.40
2019-01-29T03:03:57.490Z,-0.40
2019-01-29T03:06:46.899Z,-0.40
2019-01-29T03:09:35.441Z,-0.40
2019-01-29T03:12:24.521Z,-0.30
2019-01-29T03:15:21.765Z,-0.20
2019-01-29T03:18:10.651Z,0.00
2019-01-29T03:20:59.929Z,0.20
2019-01-29T03:23:49.269Z,0.20
2019-01-29T03:26:38.311Z,0.30
2019-01-29T03:29:27.294Z,0.30
2019-01-29T03:32:15.669Z,0.30
2019-01-29T03:35:05.322Z,0.40
2019-01-29T03:37:53.332Z,0.50
2019-01-29T03:40:42.119Z,0.50
2019-01-29T03:43:30.680Z,0.50
2019-01-29T03:46:19.118Z,0.50
2019-01-29T03:49:07.268Z,0.60
2019-01-29T03:51:55.256Z,0.60
2019-01-29T03:54:43.969Z,0.70
2019-01-29T03:57:31.561Z,0.80
2019-01-29T04:00:22.824Z,0.80
2019-01-29T04:03:11.336Z,0.80
2019-01-29T04:06:00.743Z,0.80
2019-01-29T04:08:48.522Z,0.80
2019-01-29T04:11:36.418Z,0.70
2019-01-29T04:14:24.571Z,0.70
2019-01-29T04:17:14.335Z,0.70
2019-01-29T04:20:04.042Z,0.60
2019-01-29T04:22:52.572Z,0.50
2019-01-29T04:25:40.752Z,0.50
2019-01-29T04:28:29.080Z,0.60
2019-01-29T04:31:17.498Z,0.60
2019-01-29T04:34:05.943Z,0.70
2019-01-29T04:36:54.167Z,0.70
2019-01-29T04:39:42.353Z,0.70
2019-01-29T04:42:30.748Z,0.80
2019-01-29T04:45:19.651Z,0.80
2019-01-29T04:48:08.275Z,0.80
2019-01-29T04:50:56.656Z,0.80
2019-01-29T04:53:44.869Z,0.80
2019-01-29T04:56:33.151Z,0.80
2019-01-29T04:59:21.259Z,0.80
2019-01-29T05:02:09.647Z,0.80
2019-01-29T05:04:57.991Z,0.80
2019-01-29T05:07:46.400Z,0.70
2019-01-29T05:10:35.103Z,0.60
2019-01-29T05:13:23.006Z,0.60
2019-01-29T05:16:11.589Z,0.60
2019-01-29T05:18:59.232Z,0.60
2019-01-29T05:21:47.763Z,0.70
2019-01-29T05:24:35.946Z,0.70
2019-01-29T05:27:23.932Z,0.70
2019-01-29T05:30:17.265Z,0.60
2019-01-29T05:33:05.668Z,0.50
2019-01-29T05:35:53.842Z,0.50
2019-01-29T05:38:42.362Z,0.40
2019-01-29T05:41:30.620Z,0.40
2019-01-29T05:44:18.974Z,0.30
2019-01-29T05:47:07.128Z,0.30
2019-01-29T05:49:55.339Z,0.30
2019-01-29T05:52:44.077Z,0.30
2019-01-29T05:55:32.445Z,0.30
2019-01-29T05:58:20.790Z,0.20
2019-01-29T06:01:09.254Z,0.20
2019-01-29T06:03:58.326Z,0.10
2019-01-29T06:06:47.890Z,0.10
2019-01-29T06:09:37.001Z,0.10
2019-01-29T06:12:25.905Z,0.00
2019-01-29T06:15:22.656Z,0.00
2019-01-29T06:18:11.718Z,0.00
2019-01-29T06:21:00.576Z,0.00
2019-01-29T06:23:49.436Z,0.10
2019-01-29T06:26:38.601Z,0.10
2019-01-29T06:29:27.562Z,0.00
2019-01-29T06:32:16.727Z,0.00
2019-01-29T06:35:11.124Z,0.10
2019-01-29T06:38:00.286Z,0.10
2019-01-29T06:40:49.422Z,0.10
2019-01-29T06:43:38.941Z,0.20
2019-01-29T06:46:28.270Z,0.20
2019-01-29T06:49:17.335Z,0.20
2019-01-29T06:52:06.229Z,0.20
2019-01-29T06:54:55.388Z,0.30
2019-01-29T06:57:44.413Z,0.30
2019-01-29T07:00:33.930Z,0.40
2019-01-29T07:03:22.768Z,0.50
2019-01-29T07:06:12.051Z,0.70
2019-01-29T07:09:01.030Z,0.80
2019-01-29T07:11:51.970Z,0.80
2019-01-29T07:14:39.760Z,0.80
2019-01-29T07:17:29.422Z,0.80
2019-01-29T07:20:17.430Z,0.80
2019-01-29T07:23:06.559Z,0.80
2019-01-29T07:25:54.685Z,0.70
2019-01-29T07:28:42.943Z,0.70
2019-01-29T07:31:31.012Z,0.60
2019-01-29T07:34:19.481Z,0.70
2019-01-29T07:37:07.983Z,0.70
2019-01-29T07:39:56.401Z,0.80
2019-01-29T07:42:44.789Z,0.90
2019-01-29T07:45:32.984Z,1.00
2019-01-29T07:48:21.475Z,1.10
2019-01-29T07:51:09.730Z,1.10
2019-01-29T07:53:58.172Z,1.10
2019-01-29T07:56:46.423Z,1.10
2019-01-29T07:59:34.979Z,1.20
2019-01-29T08:02:22.803Z,1.30
2019-01-29T08:05:12.027Z,1.30
2019-01-29T08:08:00.525Z,1.40
2019-01-29T08:10:48.850Z,1.40
2019-01-29T08:13:37.531Z,1.40
2019-01-29T08:16:26.060Z,1.40
2019-01-29T08:19:14.155Z,1.40
2019-01-29T08:22:02.332Z,1.40
2019-01-29T08:24:51.925Z,1.40
2019-01-29T08:27:41.714Z,1.40
2019-01-29T08:30:29.890Z,1.40
2019-01-29T08:33:17.910Z,1.40
2019-01-29T08:36:06.237Z,1.30
2019-01-29T08:38:54.603Z,1.30
2019-01-29T08:41:42.250Z,1.30
2019-01-29T08:44:30.893Z,1.40
2019-01-29T08:47:19.305Z,1.70
2019-01-29T08:50:13.310Z,2.00
2019-01-29T08:53:02.170Z,2.20
2019-01-29T08:55:52.060Z,2.10
2019-01-29T08:58:41.853Z,2.10
2019-01-29T09:01:31.213Z,2.00
2019-01-29T09:04:20.162Z,2.10
2019-01-29T09:07:09.499Z,2.20
2019-01-29T09:09:58.541Z,2.20
2019-01-29T09:12:47.677Z,2.30
2019-01-29T09:15:36.839Z,2.40
2019-01-29T09:18:25.494Z,2.50
2019-01-29T09:21:14.465Z,2.60
2019-01-29T09:24:03.934Z,2.60
2019-01-29T09:26:53.034Z,2.60
2019-01-29T09:29:42.368Z,2.60
2019-01-29T09:32:31.858Z,2.60
2019-01-29T09:35:20.904Z,2.70
2019-01-29T09:38:10.069Z,2.60
2019-01-29T09:40:59.498Z,2.70
2019-01-29T09:43:48.715Z,2.70
2019-01-29T09:46:38.217Z,2.80
2019-01-29T09:49:27.867Z,2.90
2019-01-29T09:52:16.952Z,2.90
2019-01-29T09:55:13.746Z,2.90
2019-01-29T09:58:02.588Z,2.90
2019-01-29T10:00:51.399Z,2.90
2019-01-29T10:03:40.632Z,2.90
2019-01-29T10:06:29.323Z,2.80
2019-01-29T10:09:18.428Z,2.80
2019-01-29T10:12:08.161Z,3.00
2019-01-29T10:14:57.338Z,3.00
2019-01-29T10:17:46.535Z,3.10
2019-01-29T10:20:35.766Z,3.20
2019-01-29T10:23:24.471Z,3.40
2019-01-29T10:26:13.384Z,3.40
2019-01-29T10:29:02.885Z,3.50
2019-01-29T10:31:51.822Z,3.70
2019-01-29T10:34:41.011Z,3.80
2019-01-29T10:37:30.161Z,3.90
2019-01-29T10:40:27.007Z,3.90
2019-01-29T10:43:15.889Z,3.80
2019-01-29T10:46:04.724Z,3.70
2019-01-29T10:48:53.721Z,3.70
2019-01-29T10:51:43.055Z,3.70
2019-01-29T10:54:31.680Z,3.90
2019-01-29T10:57:21.394Z,4.00
2019-01-29T11:00:29.340Z,4.00
2019-01-29T11:03:18.570Z,4.00
2019-01-29T11:06:07.556Z,3.70
2019-01-29T11:08:56.350Z,3.90
2019-01-29T11:11:45.681Z,4.10
2019-01-29T11:14:34.809Z,4.00
2019-01-29T11:17:23.894Z,4.10
2019-01-29T11:20:16.423Z,4.00
2019-01-29T11:23:06.532Z,4.10
2019-01-29T11:25:55.953Z,4.00
2019-01-29T11:28:45.883Z,4.10
2019-01-29T11:31:34.388Z,4.20
2019-01-29T11:34:23.397Z,4.40
2019-01-29T11:37:12.256Z,4.70
2019-01-29T11:40:01.118Z,5.00
2019-01-29T11:42:50.443Z,5.10
2019-01-29T11:45:47.215Z,5.30
2019-01-29T11:48:36.290Z,5.10
2019-01-29T11:51:25.466Z,4.90
2019-01-29T11:54:14.789Z,4.80
2019-01-29T11:57:03.798Z,4.80
2019-01-29T11:59:53.458Z,4.80
2019-01-29T12:02:42.745Z,4.70
2019-01-29T12:05:31.985Z,4.60
2019-01-29T12:08:21.136Z,4.60
2019-01-29T12:11:09.925Z,4.50
2019-01-29T12:13:59.460Z,4.50
2019-01-29T12:16:48.851Z,4.50
2019-01-29T12:19:37.554Z,4.60
2019-01-29T12:22:26.784Z,4.60
2019-01-29T12:25:16.392Z,4.60
2019-01-29T12:28:06.345Z,4.60
2019-01-29T12:30:55.240Z,4.60
2019-01-29T12:33:44.389Z,4.50
2019-01-29T12:36:33.575Z,4.40
2019-01-29T12:39:22.692Z,4.40
2019-01-29T12:42:12.009Z,4.20
2019-01-29T12:45:01.199Z,4.20
2019-01-29T12:47:50.443Z,4.10
2019-01-29T12:50:41.384Z,4.10
2019-01-29T12:53:30.083Z,4.20
2019-01-29T12:56:21.545Z,4.20
2019-01-29T12:59:09.824Z,4.10
2019-01-29T13:01:59.143Z,4.00
2019-01-29T13:04:48.026Z,4.00
2019-01-29T13:07:37.479Z,4.00
2019-01-29T13:10:27.273Z,4.20
2019-01-29T13:13:17.147Z,4.50
2019-01-29T13:16:06.222Z,4.50
2019-01-29T13:18:55.216Z,4.40
2019-01-29T13:21:44.318Z,4.30
2019-01-29T13:24:33.914Z,4.30
2019-01-29T13:27:23.372Z,4.30
2019-01-29T13:30:28.849Z,4.40
2019-01-29T13:33:18.469Z,4.30
2019-01-29T13:36:08.276Z,4.10
2019-01-29T13:38:57.328Z,4.00
2019-01-29T13:41:46.532Z,4.00
2019-01-29T13:44:35.912Z,3.90
2019-01-29T13:47:24.866Z,3.80
2019-01-29T13:50:33.081Z,3.80
2019-01-29T13:53:22.230Z,3.80
2019-01-29T13:56:11.311Z,3.80
2019-01-29T13:59:00.253Z,3.80
2019-01-29T14:01:49.127Z,3.90
2019-01-29T14:04:37.962Z,3.90
2019-01-29T14:07:26.600Z,3.90
2019-01-29T14:10:17.176Z,3.90
2019-01-29T14:13:06.685Z,3.80
2019-01-29T14:15:56.000Z,3.80
2019-01-29T14:18:45.476Z,3.80
2019-01-29T14:21:34.596Z,3.70
2019-01-29T14:24:24.016Z,3.70
2019-01-29T14:27:13.288Z,3.70
2019-01-29T14:30:03.664Z,3.70
2019-01-29T14:32:53.357Z,3.70
2019-01-29T14:35:42.515Z,3.70
2019-01-29T14:38:50.637Z,3.60
2019-01-29T14:41:39.575Z,3.60
2019-01-29T14:44:28.438Z,3.50
2019-01-29T14:47:17.734Z,3.50
2019-01-29T14:50:11.598Z,3.40
2019-01-29T14:53:01.115Z,3.40
2019-01-29T14:55:50.212Z,3.30
2019-01-29T14:58:39.311Z,3.30
2019-01-29T15:01:28.942Z,3.20
2019-01-29T15:04:18.068Z,3.20
2019-01-29T15:07:06.982Z,3.20
2019-01-29T15:09:56.397Z,3.10
2019-01-29T15:12:45.534Z,3.00
2019-01-29T15:15:46.204Z,3.10
2019-01-29T15:18:37.295Z,3.20
2019-01-29T15:21:26.889Z,3.20
2019-01-29T15:24:16.256Z,3.30
2019-01-29T15:27:06.166Z,3.30
2019-01-29T15:29:55.917Z,3.30
2019-01-29T15:32:45.373Z,3.30
2019-01-29T15:35:34.863Z,3.10
2019-01-29T15:38:24.044Z,3.10
2019-01-29T15:41:13.527Z,3.00
2019-01-29T15:44:02.848Z,2.90
2019-01-29T15:46:51.640Z,2.80
2019-01-29T15:49:40.750Z,2.80
2019-01-29T15:52:30.091Z,2.70
2019-01-29T15:55:20.002Z,2.70
2019-01-29T15:58:09.636Z,2.70
2019-01-29T16:00:58.690Z,2.60
2019-01-29T16:03:47.981Z,2.50
2019-01-29T16:06:36.909Z,2.50
2019-01-29T16:09:25.588Z,2.50
2019-01-29T16:12:14.967Z,2.40
2019-01-29T16:15:06.368Z,2.40
2019-01-29T16:17:55.952Z,2.40
2019-01-29T16:20:45.236Z,2.30
2019-01-29T16:23:34.809Z,2.30
2019-01-29T16:26:23.794Z,2.30
2019-01-29T16:29:13.234Z,2.20
2019-01-29T16:32:02.705Z,2.20
2019-01-29T16:34:51.462Z,2.10
2019-01-29T16:37:40.350Z,2.10
2019-01-29T16:40:33.899Z,2.10
2019-01-29T16:43:23.377Z,2.00
2019-01-29T16:46:12.408Z,1.90
2019-01-29T16:49:01.395Z,1.90
2019-01-29T16:51:50.660Z,1.90
2019-01-29T16:54:39.534Z,1.80
2019-01-29T16:57:31.701Z,1.80
2019-01-29T17:00:30.154Z,1.80
2019-01-29T17:03:19.269Z,1.80
2019-01-29T17:06:08.689Z,1.70
2019-01-29T17:08:57.978Z,1.70
2019-01-29T17:11:47.345Z,1.70
2019-01-29T17:14:36.683Z,1.60
2019-01-29T17:17:26.051Z,1.60
2019-01-29T17:20:42.381Z,1.60
2019-01-29T17:23:31.440Z,1.60
2019-01-29T17:26:20.095Z,1.50
2019-01-29T17:29:09.373Z,1.50
2019-01-29T17:31:58.429Z,1.50
2019-01-29T17:34:47.484Z,1.50
2019-01-29T17:37:36.970Z,1.40
2019-01-29T17:40:26.943Z,1.40
2019-01-29T17:43:16.489Z,1.40
2019-01-29T17:46:06.006Z,1.40
2019-01-29T17:48:55.111Z,1.30
2019-01-29T17:51:44.654Z,1.30
2019-01-29T17:54:33.941Z,1.30
2019-01-29T17:57:23.698Z,1.30
2019-01-29T18:00:21.099Z,1.30
2019-01-29T18:03:11.272Z,1.20
2019-01-29T18:06:00.075Z,1.20
2019-01-29T18:08:49.811Z,1.20
2019-01-29T18:11:38.790Z,1.20
2019-01-29T18:14:27.306Z,1.20
2019-01-29T18:17:16.467Z,1.20
2019-01-29T18:20:07.878Z,1.20
2019-01-29T18:22:56.645Z,1.10
2019-01-29T18:25:45.371Z,1.20
2019-01-29T18:28:34.681Z,1.20
2019-01-29T18:31:23.424Z,1.20
2019-01-29T18:34:12.906Z,1.10
2019-01-29T18:37:02.309Z,1.10
2019-01-29T18:39:51.956Z,1.10
2019-01-29T18:42:41.473Z,1.00
2019-01-29T18:45:30.096Z,1.00
2019-01-29T18:48:19.253Z,1.00
2019-01-29T18:51:08.255Z,1.00
2019-01-29T18:53:57.281Z,1.00
2019-01-29T18:56:46.036Z,0.90
2019-01-29T18:59:34.798Z,0.90
2019-01-29T19:02:23.934Z,0.80
2019-01-29T19:05:15.336Z,0.80
2019-01-29T19:08:05.220Z,0.80
2019-01-29T19:10:54.190Z,0.80
2019-01-29T19:13:43.718Z,0.80
2019-01-29T19:16:32.864Z,0.80
2019-01-29T19:19:22.248Z,0.70
2019-01-29T19:22:11.088Z,0.70
2019-01-29T19:25:00.310Z,0.60
2019-01-29T19:27:50.041Z,0.60
2019-01-29T19:30:39.460Z,0.60
2019-01-29T19:33:28.691Z,0.60
2019-01-29T19:36:17.814Z,0.70
2019-01-29T19:39:09.432Z,0.60
2019-01-29T19:41:58.496Z,0.60
2019-01-29T19:44:48.127Z,0.50
2019-01-29T19:47:37.220Z,0.50
2019-01-29T19:50:31.707Z,0.50
2019-01-29T19:53:20.661Z,0.50
2019-01-29T19:56:09.600Z,0.50
2019-01-29T19:58:58.871Z,0.50
2019-01-29T20:01:47.994Z,0.50
2019-01-29T20:04:36.997Z,0.40
2019-01-29T20:07:25.495Z,0.40
2019-01-29T20:10:20.766Z,0.40
2019-01-29T20:13:10.024Z,0.40
2019-01-29T20:15:59.508Z,0.40
2019-01-29T20:18:49.127Z,0.40
2019-01-29T20:21:38.473Z,0.30
2019-01-29T20:24:27.516Z,0.30
2019-01-29T20:27:16.867Z,0.30
2019-01-29T20:30:19.384Z,0.30
2019-01-29T20:33:08.692Z,0.30
2019-01-29T20:35:58.012Z,0.20
2019-01-29T20:38:47.628Z,0.20
2019-01-29T20:41:36.895Z,0.20
2019-01-29T20:44:26.226Z,0.20
2019-01-29T20:47:15.851Z,0.20
2019-01-29T20:50:13.680Z,0.20
2019-01-29T20:53:02.231Z,0.10
2019-01-29T20:55:51.085Z,0.10
2019-01-29T20:58:40.880Z,0.10
2019-01-29T21:01:30.207Z,0.10
2019-01-29T21:04:20.023Z,0.10
2019-01-29T21:07:09.099Z,0.10
2019-01-29T21:09:58.562Z,0.10
2019-01-29T21:12:47.847Z,0.20
2019-01-29T21:15:38.630Z,0.30
2019-01-29T21:18:34.661Z,0.40
2019-01-29T21:21:24.036Z,0.50
2019-01-29T21:24:13.508Z,0.40
2019-01-29T21:27:02.495Z,0.30
2019-01-29T21:29:51.871Z,0.30
2019-01-29T21:32:41.154Z,0.20
2019-01-29T21:35:30.595Z,0.20
2019-01-29T21:38:19.551Z,0.20
2019-01-29T21:41:08.351Z,0.20
2019-01-29T21:43:57.297Z,0.10
2019-01-29T21:46:46.546Z,0.10
2019-01-29T21:49:35.193Z,0.10
2019-01-29T21:52:24.279Z,0.00
2019-01-29T21:55:16.193Z,0.00
2019-01-29T21:58:05.988Z,0.00
2019-01-29T22:00:55.548Z,0.00
2019-01-29T22:03:44.823Z,-0.10
2019-01-29T22:06:34.117Z,-0.10
2019-01-29T22:09:23.345Z,-0.10
2019-01-29T22:12:12.732Z,-0.30
2019-01-29T22:15:02.042Z,-0.30
2019-01-29T22:17:51.336Z,-0.20
2019-01-29T22:20:40.334Z,-0.20
2019-01-29T22:23:29.072Z,-0.30
2019-01-29T22:26:18.767Z,-0.30
2019-01-29T22:29:07.819Z,-0.30
2019-01-29T22:31:57.206Z,-0.20
2019-01-29T22:34:46.781Z,-0.20
2019-01-29T22:37:35.768Z,-0.30
2019-01-29T22:40:31.262Z,-0.30
2019-01-29T22:43:20.013Z,-0.30
2019-01-29T22:46:09.277Z,-0.20
2019-01-29T22:48:58.122Z,-0.20
2019-01-29T22:51:47.316Z,-0.30
2019-01-29T22:54:36.435Z,-0.40
2019-01-29T22:57:25.980Z,-0.40
2019-01-29T23:00:44.348Z,-0.50
2019-01-29T23:03:41.016Z,-0.50
2019-01-29T23:06:37.396Z,-0.60
2019-01-29T23:09:26.248Z,-0.50
2019-01-29T23:12:15.720Z,-0.60
2019-01-29T23:15:08.080Z,-0.60
2019-01-29T23:17:57.022Z,-0.60
2019-01-29T23:20:46.154Z,-0.60
2019-01-29T23:23:35.458Z,-0.60
2019-01-29T23:26:24.932Z,-0.60
2019-01-29T23:29:13.940Z,-0.60
2019-01-29T23:32:03.167Z,-0.60
2019-01-29T23:34:52.256Z,-0.60
2019-01-29T23:37:41.708Z,-0.60
2019-01-29T23:40:30.279Z,-0.60
2019-01-29T23:43:19.300Z,-0.60
2019-01-29T23:46:08.558Z,-0.60
2019-01-29T23:48:58.065Z,-0.70
2019-01-29T23:51:46.895Z,-0.60
2019-01-29T23:54:36.192Z,-0.70
2019-01-29T23:57:25.084Z,-0.60
